Time;durP1;ratioP1;P1;durP2;ratioP2;P2;SDS_P1;SDS_P2;PMS_P1;PMS_P2;Temp;Humidity;BMP_temperature;BMP_pressure;BME280_temperature;BME280_humidity;BME280_pressure;Samples;Min_cycle;Max_cycle;Signal;HPM_P1;HPM_P2
2023/09/15 00:00:17;;;;;;;133.20;126.57;;;20.00;99.90;;;;;;5033049;28;20387;-73
2023/09/15 00:02:43;;;;;;;113.65;107.95;;;20.00;99.90;;;;;;5032642;28;20060;-73
2023/09/15 00:05:12;;;;;;;132.57;125.93;;;20.00;99.90;;;;;;5031587;28;20037;-74
2023/09/15 00:07:39;;;;;;;130.10;123.50;;;20.00;99.90;;;;;;5033528;28;20060;-73
2023/09/15 00:10:11;;;;;;;107.63;102.20;;;20.10;99.90;;;;;;5033110;28;20044;-74
2023/09/15 00:12:42;;;;;;;135.52;128.63;;;20.10;99.90;;;;;;5032061;28;20041;-73
2023/09/15 00:15:10;;;;;;;119.68;113.47;;;20.00;99.90;;;;;;5031885;28;20056;-73
2023/09/15 00:17:36;;;;;;;125.13;118.65;;;19.90;99.90;;;;;;5032981;28;20053;-74
2023/09/15 00:20:25;;;;;;;114.25;108.60;;;19.90;99.90;;;;;;5032521;28;20056;-74
2023/09/15 00:22:52;;;;;;;103.70;98.53;;;19.90;99.90;;;;;;5029037;28;20052;-74
2023/09/15 00:25:26;;;;;;;103.78;98.35;;;19.90;99.90;;;;;;5032291;28;20500;-74
2023/09/15 00:27:57;;;;;;;73.65;69.85;;;19.90;99.90;;;;;;5033017;28;20117;-73
2023/09/15 00:30:24;;;;;;;;;;;19.80;99.90;;;;;;5035516;28;20033;-74
2023/09/15 00:32:50;;;;;;;54.28;51.33;;;19.80;99.90;;;;;;5051504;28;20396;-73
2023/09/15 00:35:17;;;;;;;52.20;49.40;;;19.70;99.90;;;;;;5052647;28;20055;-73
2023/09/15 00:37:47;;;;;;;58.65;55.60;;;19.70;99.90;;;;;;5051922;28;20037;-73
2023/09/15 00:40:20;;;;;;;54.13;51.13;;;19.70;99.90;;;;;;5051708;28;20033;-74
2023/09/15 00:42:47;;;;;;;65.65;62.15;;;19.80;99.90;;;;;;5051581;28;20040;-74
2023/09/15 00:45:18;;;;;;;84.38;79.55;;;19.80;99.90;;;;;;5051917;28;20033;-74
2023/09/15 00:47:50;;;;;;;76.07;71.82;;;19.80;99.90;;;;;;5053038;28;20048;-73
2023/09/15 00:50:17;;;;;;;67.97;64.45;;;19.70;99.90;;;;;;5050879;28;20063;-74
2023/09/15 00:52:49;;;;;;;68.63;64.88;;;19.70;99.90;;;;;;5050225;28;20399;-74
2023/09/15 00:55:15;;;;;;;83.60;78.93;;;19.70;99.90;;;;;;5051042;28;20028;-73
2023/09/15 00:57:41;;;;;;;73.55;69.43;;;19.70;99.90;;;;;;5052473;28;20352;-74
2023/09/15 01:00:13;;;;;;;75.47;71.57;;;19.80;99.90;;;;;;5051858;28;20044;-72
2023/09/15 01:02:40;;;;;;;54.42;51.47;;;19.70;99.90;;;;;;5049901;28;20033;-73
2023/09/15 01:05:07;;;;;;;47.55;44.85;;;19.60;99.90;;;;;;5051030;28;20047;-74
2023/09/15 01:07:34;;;;;;;46.35;43.85;;;19.50;99.90;;;;;;5030809;28;20045;-74
2023/09/15 01:10:00;;;;;;;38.08;35.97;;;19.50;99.90;;;;;;5047833;28;20044;-74
2023/09/15 01:12:26;;;;;;;42.92;40.58;;;19.50;99.90;;;;;;5050094;28;20380;-73
2023/09/15 01:14:52;;;;;;;43.55;41.00;;;19.50;99.90;;;;;;5050254;28;20067;-74
2023/09/15 01:17:21;;;;;;;37.45;35.30;;;19.50;99.90;;;;;;5033671;28;20033;-74
2023/09/15 01:20:09;;;;;;;43.90;41.28;;;19.50;99.90;;;;;;5049858;28;20045;-73
2023/09/15 01:22:53;;;;;;;40.40;38.05;;;19.50;99.90;;;;;;5049802;28;20033;-73
2023/09/15 01:26:01;;;;;;;38.72;36.45;;;19.40;99.90;;;;;;5049830;28;20040;-74
2023/09/15 01:28:40;;;;;;;37.97;35.88;;;19.30;99.90;;;;;;5009763;28;20030;-73
2023/09/15 01:31:06;;;;;;;31.92;30.13;;;19.30;99.90;;;;;;5011020;28;20041;-73
2023/09/15 01:33:32;;;;;;;40.08;37.78;;;19.20;99.90;;;;;;4993784;28;20855;-73
2023/09/15 01:35:59;;;;;;;30.80;28.92;;;19.20;99.90;;;;;;4993491;28;20034;-74
2023/09/15 01:38:25;;;;;;;27.92;26.23;;;19.10;99.90;;;;;;5008285;28;20049;-73
2023/09/15 01:40:51;;;;;;;26.70;24.88;;;19.10;99.90;;;;;;5014453;28;20555;-74
2023/09/15 01:43:17;;;;;;;29.83;28.02;;;19.10;99.90;;;;;;5010417;28;20038;-74
2023/09/15 01:45:43;;;;;;;37.75;35.58;;;19.10;99.90;;;;;;5013112;28;20467;-74
2023/09/15 01:48:10;;;;;;;27.45;25.85;;;19.10;99.90;;;;;;5028375;28;20033;-74
2023/09/15 01:50:36;;;;;;;27.70;26.05;;;19.20;99.90;;;;;;4996934;28;20037;-73
2023/09/15 01:53:04;;;;;;;31.55;29.63;;;19.00;99.90;;;;;;4993069;28;20444;-74
2023/09/15 01:55:31;;;;;;;31.30;29.30;;;19.10;99.90;;;;;;4995302;28;20033;-74
2023/09/15 01:57:57;;;;;;;25.20;23.63;;;19.10;99.90;;;;;;5029221;28;20041;-73
2023/09/15 02:00:23;;;;;;;25.98;24.20;;;19.10;99.90;;;;;;5045329;28;20056;-74
2023/09/15 02:02:49;;;;;;;34.35;32.25;;;19.00;99.90;;;;;;5033945;28;20049;-74
2023/09/15 02:05:23;;;;;;;30.45;28.67;;;19.00;99.90;;;;;;5034315;28;20037;-74
2023/09/15 02:07:49;;;;;;;28.90;26.83;;;19.00;99.90;;;;;;5033776;28;20049;-74
2023/09/15 02:10:15;;;;;;;28.45;26.85;;;19.00;99.90;;;;;;5034371;28;20510;-74
2023/09/15 02:12:41;;;;;;;30.25;28.30;;;18.90;99.90;;;;;;5035349;28;20172;-74
2023/09/15 02:15:08;;;;;;;26.20;24.70;;;18.80;99.90;;;;;;5034571;28;20061;-74
2023/09/15 02:17:34;;;;;;;34.13;32.00;;;18.80;99.90;;;;;;5035241;28;20022;-74
2023/09/15 02:20:00;;;;;;;26.60;24.95;;;18.80;99.90;;;;;;5034527;28;20511;-74
2023/09/15 02:22:26;;;;;;;25.65;23.85;;;18.50;99.90;;;;;;5034694;28;20097;-74
2023/09/15 02:24:52;;;;;;;24.45;23.05;;;18.30;99.90;;;;;;5035413;28;20499;-74
2023/09/15 02:27:19;;;;;;;28.92;27.30;;;18.30;99.90;;;;;;5035010;28;20029;-74
2023/09/15 02:29:45;;;;;;;29.65;27.73;;;18.40;99.90;;;;;;5034902;28;20484;-73
2023/09/15 02:32:11;;;;;;;29.80;28.02;;;18.40;99.90;;;;;;5034153;28;20029;-74
2023/09/15 02:34:37;;;;;;;26.88;25.27;;;18.50;99.90;;;;;;5034819;28;20025;-74
2023/09/15 02:37:03;;;;;;;25.17;23.60;;;18.50;99.90;;;;;;5034845;28;20471;-74
2023/09/15 02:39:29;;;;;;;31.13;29.10;;;18.50;99.90;;;;;;5033823;28;20037;-73
2023/09/15 02:41:56;;;;;;;33.50;31.55;;;18.30;99.90;;;;;;5029789;28;20052;-73
2023/09/15 02:44:22;;;;;;;23.60;22.10;;;18.20;99.90;;;;;;5034366;28;20037;-74
2023/09/15 02:46:48;;;;;;;22.88;21.45;;;18.00;99.90;;;;;;5034319;28;20042;-73
2023/09/15 02:49:14;;;;;;;21.33;19.88;;;17.90;99.90;;;;;;5034024;28;20026;-73
2023/09/15 02:51:40;;;;;;;19.42;18.25;;;17.80;99.90;;;;;;5033654;28;20488;-74
2023/09/15 02:54:06;;;;;;;26.30;24.52;;;17.70;99.90;;;;;;5034480;28;20061;-74
2023/09/15 02:56:33;;;;;;;27.58;25.85;;;17.90;99.90;;;;;;5034094;28;20373;-73
2023/09/15 02:58:59;;;;;;;27.33;25.65;;;17.80;99.90;;;;;;5034088;28;20042;-73
2023/09/15 03:01:25;;;;;;;26.00;24.33;;;17.80;99.90;;;;;;5033305;28;20058;-73
2023/09/15 03:03:52;;;;;;;25.40;23.48;;;17.60;99.90;;;;;;5032761;28;20033;-74
2023/09/15 03:06:19;;;;;;;25.90;24.33;;;17.50;99.90;;;;;;5033617;28;20045;-74
2023/09/15 03:08:45;;;;;;;29.08;27.08;;;17.50;99.90;;;;;;5033847;28;20033;-74
2023/09/15 03:11:13;;;;;;;28.15;26.20;;;17.40;99.90;;;;;;5033108;28;20038;-73
2023/09/15 03:13:40;;;;;;;23.85;22.45;;;17.40;99.90;;;;;;5032157;28;20483;-74
2023/09/15 03:16:10;;;;;;;24.95;23.13;;;17.40;99.90;;;;;;5033204;28;20042;-74
2023/09/15 03:18:36;;;;;;;24.05;22.63;;;17.30;99.90;;;;;;5032559;28;20045;-74
2023/09/15 03:21:03;;;;;;;22.63;21.08;;;17.30;99.90;;;;;;5032751;28;20061;-74
2023/09/15 03:23:30;;;;;;;22.83;21.23;;;17.50;99.90;;;;;;5034210;28;20033;-74
2023/09/15 03:26:02;;;;;;;22.20;20.73;;;17.50;99.90;;;;;;5034051;28;20034;-74
2023/09/15 03:28:31;;;;;;;21.65;20.25;;;17.30;99.90;;;;;;5033766;28;20044;-74
2023/09/15 03:30:57;;;;;;;21.15;19.58;;;17.20;99.90;;;;;;5031051;28;20037;-74
2023/09/15 03:33:23;;;;;;;20.45;19.15;;;17.00;99.90;;;;;;5033552;28;20025;-73
2023/09/15 03:35:49;;;;;;;22.38;20.95;;;17.10;99.90;;;;;;5033405;28;20036;-73
2023/09/15 03:38:15;;;;;;;20.65;18.95;;;17.30;99.90;;;;;;5033266;28;20022;-74
2023/09/15 03:40:41;;;;;;;20.67;19.27;;;17.40;99.90;;;;;;5027373;28;20041;-73
2023/09/15 03:43:07;;;;;;;24.75;22.83;;;17.60;99.90;;;;;;5019317;28;20029;-73
2023/09/15 03:45:34;;;;;;;23.55;21.95;;;17.60;99.90;;;;;;5032964;28;20535;-74
2023/09/15 03:48:00;;;;;;;23.08;21.40;;;17.60;99.90;;;;;;5032719;28;20040;-74
2023/09/15 03:50:26;;;;;;;24.45;22.60;;;17.70;99.90;;;;;;5031552;28;20373;-74
2023/09/15 03:52:52;;;;;;;24.48;22.80;;;17.60;99.90;;;;;;5033521;28;20037;-74
2023/09/15 03:55:19;;;;;;;26.50;24.52;;;17.60;99.90;;;;;;5033001;28;20391;-74
2023/09/15 03:57:45;;;;;;;25.45;23.63;;;17.60;99.90;;;;;;5033797;28;20506;-74
2023/09/15 04:00:15;;;;;;;29.05;27.02;;;17.60;99.90;;;;;;5022956;28;20069;-74
2023/09/15 04:02:41;;;;;;;27.08;25.52;;;17.70;99.90;;;;;;5033088;28;20037;-74
2023/09/15 04:05:08;;;;;;;25.08;23.52;;;17.80;99.90;;;;;;5033210;28;20037;-74
2023/09/15 04:07:34;;;;;;;27.15;25.40;;;17.80;99.90;;;;;;5033359;28;20033;-74
2023/09/15 04:10:00;;;;;;;26.00;24.27;;;17.70;99.90;;;;;;5032894;28;20411;-74
2023/09/15 04:12:26;;;;;;;28.13;26.08;;;17.70;99.90;;;;;;5032706;28;20034;-74
2023/09/15 04:14:52;;;;;;;28.80;27.02;;;17.70;99.90;;;;;;5033011;28;20046;-74
2023/09/15 04:17:18;;;;;;;27.60;25.83;;;17.60;99.90;;;;;;5031893;28;20037;-74
2023/09/15 04:19:44;;;;;;;29.60;27.88;;;17.70;99.90;;;;;;5027699;28;20365;-75
2023/09/15 04:22:10;;;;;;;24.13;22.63;;;17.70;99.90;;;;;;5032596;28;20041;-74
2023/09/15 04:24:36;;;;;;;27.63;25.88;;;17.70;99.90;;;;;;5031948;28;20057;-74
2023/09/15 04:27:03;;;;;;;23.38;21.75;;;17.70;99.90;;;;;;5032510;28;20045;-74
2023/09/15 04:29:29;;;;;;;24.58;22.88;;;17.80;99.90;;;;;;5031461;28;20033;-74
2023/09/15 04:31:55;;;;;;;25.63;23.88;;;17.70;99.90;;;;;;5027978;28;20495;-74
2023/09/15 04:34:21;;;;;;;25.10;23.48;;;17.70;99.90;;;;;;5032289;28;20029;-75
2023/09/15 04:36:48;;;;;;;21.80;20.33;;;17.70;99.90;;;;;;5032167;28;20040;-74
2023/09/15 04:39:14;;;;;;;25.88;24.23;;;17.70;99.90;;;;;;5028221;28;20042;-74
2023/09/15 04:41:40;;;;;;;24.95;23.20;;;17.80;99.90;;;;;;5030278;28;20045;-74
2023/09/15 04:44:07;;;;;;;26.15;24.38;;;17.90;99.90;;;;;;5032677;28;20026;-73
2023/09/15 04:46:33;;;;;;;21.50;20.02;;;17.80;99.90;;;;;;5031340;28;20428;-73
2023/09/15 04:48:59;;;;;;;25.95;24.13;;;17.80;99.90;;;;;;5032534;28;20029;-74
2023/09/15 04:51:26;;;;;;;27.65;25.98;;;17.80;99.90;;;;;;5030163;28;20037;-74
2023/09/15 04:53:52;;;;;;;29.15;27.08;;;17.70;99.90;;;;;;5032205;28;20037;-73
2023/09/15 04:56:18;;;;;;;27.88;26.02;;;17.50;99.90;;;;;;5032203;28;20056;-74
2023/09/15 04:58:45;;;;;;;27.95;25.98;;;17.40;99.90;;;;;;5031979;28;20046;-73
2023/09/15 05:01:16;;;;;;;26.10;24.35;;;17.40;99.90;;;;;;5029687;28;20041;-73
2023/09/15 05:03:44;;;;;;;25.52;23.73;;;17.30;99.90;;;;;;5032155;28;20392;-74
2023/09/15 05:06:10;;;;;;;25.60;23.90;;;17.40;99.90;;;;;;5031231;28;20067;-74
2023/09/15 05:08:36;;;;;;;27.90;26.13;;;17.40;99.90;;;;;;5032088;28;20032;-73
2023/09/15 05:11:02;;;;;;;26.77;24.88;;;17.30;99.90;;;;;;5030996;28;20034;-73
2023/09/15 05:13:28;;;;;;;25.17;23.65;;;17.30;99.90;;;;;;5031292;28;20049;-73
2023/09/15 05:15:54;;;;;;;22.67;21.23;;;17.40;99.90;;;;;;5030808;28;20407;-73
2023/09/15 05:18:20;;;;;;;21.15;19.60;;;17.40;99.90;;;;;;5031841;28;20021;-74
2023/09/15 05:20:46;;;;;;;22.40;21.10;;;17.50;99.90;;;;;;5031020;28;20400;-73
2023/09/15 05:23:12;;;;;;;21.40;20.00;;;17.40;99.90;;;;;;5031961;28;20021;-73
2023/09/15 05:25:38;;;;;;;20.60;19.23;;;17.30;99.90;;;;;;5030808;28;20395;-74
2023/09/15 05:28:05;;;;;;;20.33;19.02;;;17.40;99.90;;;;;;5029866;28;20029;-74
2023/09/15 05:30:31;;;;;;;21.77;20.05;;;17.50;99.90;;;;;;5029112;28;20041;-73
2023/09/15 05:32:57;;;;;;;21.95;20.40;;;17.50;99.90;;;;;;5027056;28;20048;-73
2023/09/15 05:35:23;;;;;;;24.30;22.58;;;17.50;99.90;;;;;;5029748;28;20033;-73
2023/09/15 05:37:49;;;;;;;25.85;24.13;;;17.50;99.90;;;;;;5029661;28;20384;-73
2023/09/15 05:40:16;;;;;;;29.20;27.25;;;17.50;99.90;;;;;;5028988;28;20056;-73
2023/09/15 05:42:42;;;;;;;27.95;26.23;;;17.40;99.90;;;;;;5030090;28;20030;-73
2023/09/15 05:45:10;;;;;;;25.52;23.98;;;17.40;99.90;;;;;;5026500;28;20045;-75
2023/09/15 05:47:36;;;;;;;23.75;22.05;;;17.40;99.90;;;;;;5029838;28;20502;-75
2023/09/15 05:50:04;;;;;;;24.80;23.15;;;17.40;99.90;;;;;;5026167;28;20044;-76
2023/09/15 05:52:30;;;;;;;25.88;24.15;;;17.40;99.90;;;;;;5029964;28;20408;-73
2023/09/15 05:54:57;;;;;;;27.08;25.15;;;17.40;99.90;;;;;;5025629;28;20049;-74
2023/09/15 05:57:23;;;;;;;25.67;24.00;;;17.30;99.90;;;;;;5027658;28;20037;-74
2023/09/15 05:59:50;;;;;;;24.25;22.60;;;17.20;99.90;;;;;;5028719;28;20054;-74
2023/09/15 06:02:16;;;;;;;23.42;21.67;;;17.30;99.90;;;;;;5028507;28;20042;-74
2023/09/15 06:04:43;;;;;;;21.70;20.23;;;17.20;99.90;;;;;;5030860;28;20048;-74
2023/09/15 06:07:09;;;;;;;22.35;20.95;;;17.20;99.90;;;;;;5030669;28;20057;-74
2023/09/15 06:09:35;;;;;;;23.58;21.85;;;17.20;99.90;;;;;;5039481;28;20033;-75
2023/09/15 06:12:01;;;;;;;28.27;26.45;;;17.20;99.90;;;;;;5029587;28;20030;-74
2023/09/15 06:14:27;;;;;;;24.70;22.70;;;17.20;99.90;;;;;;5031466;28;20053;-74
2023/09/15 06:16:54;;;;;;;24.63;23.13;;;17.30;99.90;;;;;;5029117;28;20041;-75
2023/09/15 06:19:20;;;;;;;23.80;22.17;;;17.40;99.90;;;;;;5031110;28;20511;-74
2023/09/15 06:21:46;;;;;;;23.85;22.20;;;17.40;99.90;;;;;;5025910;28;20058;-74
2023/09/15 06:24:12;;;;;;;22.10;20.15;;;17.40;99.90;;;;;;5028284;28;20037;-74
2023/09/15 06:26:38;;;;;;;21.58;20.17;;;17.40;99.90;;;;;;5026571;28;20044;-75
2023/09/15 06:29:05;;;;;;;27.17;25.35;;;17.50;99.90;;;;;;5029491;28;20021;-75
2023/09/15 06:31:31;;;;;;;40.65;38.20;;;17.70;99.90;;;;;;5029086;28;20030;-75
2023/09/15 06:33:57;;;;;;;35.25;33.25;;;17.60;99.90;;;;;;5031096;28;20036;-75
2023/09/15 06:36:26;;;;;;;45.03;42.38;;;17.60;99.90;;;;;;5029773;28;20053;-75
2023/09/15 06:38:52;;;;;;;47.58;44.67;;;17.70;99.90;;;;;;5021862;28;20052;-75
2023/09/15 06:41:18;;;;;;;51.33;48.42;;;17.90;99.90;;;;;;5029723;28;20045;-75
2023/09/15 06:43:45;;;;;;;75.55;71.50;;;18.10;99.90;;;;;;5030084;28;20046;-77
2023/09/15 06:46:11;;;;;;;101.18;95.78;;;18.30;99.90;;;;;;5028249;28;20038;-76
2023/09/15 06:48:37;;;;;;;76.57;72.22;;;18.60;99.90;;;;;;5026096;28;20037;-74
2023/09/15 06:51:04;;;;;;;111.18;105.25;;;18.90;99.90;;;;;;5015177;28;20049;-78
2023/09/15 06:53:31;;;;;;;95.88;90.80;;;19.00;99.90;;;;;;5033034;28;20475;-76
2023/09/15 06:55:58;;;;;;;79.65;75.05;;;19.10;99.90;;;;;;5031561;28;20032;-76
2023/09/15 06:58:24;;;;;;;84.47;80.03;;;19.10;99.90;;;;;;5029933;28;20049;-74
2023/09/15 07:00:53;;;;;;;83.13;78.78;;;19.00;99.90;;;;;;5023392;28;20053;-75
2023/09/15 07:03:20;;;;;;;88.97;84.22;;;19.10;99.90;;;;;;5033812;28;20468;-76
2023/09/15 07:05:46;;;;;;;92.90;87.75;;;19.30;99.90;;;;;;5032045;28;20380;-74
2023/09/15 07:08:13;;;;;;;88.80;84.13;;;19.60;99.90;;;;;;5032389;28;20033;-75
2023/09/15 07:10:39;;;;;;;160.80;152.43;;;19.60;99.90;;;;;;5028360;28;20507;-76
2023/09/15 07:13:05;;;;;;;142.38;134.52;;;19.70;99.90;;;;;;5028970;28;20500;-75
2023/09/15 07:15:35;;;;;;;102.60;97.05;;;19.90;99.90;;;;;;5030386;28;20040;-74
2023/09/15 07:18:04;;;;;;;125.40;119.00;;;20.00;99.90;;;;;;5026956;28;20037;-74
2023/09/15 07:20:30;;;;;;;405.63;381.50;;;20.30;99.90;;;;;;5035659;28;20793;-74
2023/09/15 07:22:57;;;;;;;142.55;134.93;;;20.40;99.90;;;;;;5033632;28;20041;-74
2023/09/15 07:25:23;;;;;;;268.85;252.90;;;20.50;99.90;;;;;;5032442;28;20033;-75
2023/09/15 07:27:50;;;;;;;126.70;119.28;;;20.60;99.90;;;;;;5033146;28;20048;-72
2023/09/15 07:30:16;;;;;;;122.70;116.55;;;20.70;99.90;;;;;;5027569;28;20041;-70
2023/09/15 07:32:43;;;;;;;99.93;94.60;;;20.50;99.90;;;;;;5033107;28;20056;-72
2023/09/15 07:35:09;;;;;;;105.15;99.88;;;20.50;99.90;;;;;;5033569;28;20036;-71
2023/09/15 07:37:36;;;;;;;165.40;157.13;;;20.40;99.90;;;;;;5032857;28;20072;-83
2023/09/15 07:40:02;;;;;;;127.15;120.80;;;20.40;99.90;;;;;;5028361;28;20376;-84
2023/09/15 07:42:28;;;;;;;120.10;114.22;;;20.30;99.90;;;;;;5020879;28;20519;-84
2023/09/15 07:44:54;;;;;;;115.50;109.25;;;20.40;99.90;;;;;;5033163;28;20034;-84
2023/09/15 07:47:21;;;;;;;110.15;104.28;;;20.60;99.90;;;;;;5032505;28;20408;-82
2023/09/15 07:49:48;;;;;;;111.57;106.07;;;20.70;99.90;;;;;;5033310;28;20033;-81
2023/09/15 07:52:14;;;;;;;154.15;139.50;;;20.80;99.90;;;;;;5032380;28;20451;-81
2023/09/15 07:54:40;;;;;;;267.90;253.20;;;21.00;99.90;;;;;;5032890;28;20029;-81
2023/09/15 07:57:06;;;;;;;144.27;137.15;;;21.20;99.90;;;;;;5031582;28;20045;-81
2023/09/15 07:59:32;;;;;;;163.23;155.05;;;21.10;99.90;;;;;;5033030;28;20022;-70
2023/09/15 08:01:59;;;;;;;156.98;149.30;;;20.90;99.90;;;;;;5032273;28;20404;-71
2023/09/15 08:04:25;;;;;;;143.45;136.27;;;20.90;99.90;;;;;;5033264;28;20048;-67
2023/09/15 08:06:52;;;;;;;141.38;134.32;;;20.90;99.90;;;;;;5032059;28;20480;-68
2023/09/15 08:09:18;;;;;;;137.25;130.52;;;21.10;99.90;;;;;;5031717;28;20048;-68
2023/09/15 08:11:44;;;;;;;169.10;160.45;;;21.10;99.90;;;;;;5032802;28;20045;-72
2023/09/15 08:14:10;;;;;;;139.20;132.40;;;21.10;99.90;;;;;;5032073;28;20046;-67
2023/09/15 08:16:36;;;;;;;145.23;137.80;;;21.00;99.90;;;;;;5031611;28;20042;-67
2023/09/15 08:19:03;;;;;;;160.32;152.40;;;21.20;99.90;;;;;;5033204;28;20029;-67
2023/09/15 08:21:29;;;;;;;209.00;198.80;;;21.40;99.90;;;;;;5031938;28;20513;-67
2023/09/15 08:23:55;;;;;;;206.63;196.63;;;21.60;99.90;;;;;;5033000;28;20033;-67
2023/09/15 08:26:23;;;;;;;161.02;153.13;;;21.60;99.90;;;;;;5032605;28;20050;-67
2023/09/15 08:28:49;;;;;;;202.30;192.68;;;21.80;99.90;;;;;;5030437;28;20042;-70
2023/09/15 08:31:15;;;;;;;344.42;325.23;;;21.60;99.90;;;;;;5024177;28;20053;-69
2023/09/15 08:33:41;;;;;;;202.80;193.07;;;21.70;99.90;;;;;;5028163;28;20025;-69
2023/09/15 08:36:07;;;;;;;181.02;172.25;;;21.70;99.90;;;;;;5029001;28;20507;-69
2023/09/15 08:38:33;;;;;;;227.30;216.45;;;21.70;99.90;;;;;;5026920;28;20041;-69
2023/09/15 08:41:01;;;;;;;180.52;171.75;;;21.70;99.90;;;;;;5020402;28;20061;-69
2023/09/15 08:43:29;;;;;;;166.15;158.00;;;21.60;99.90;;;;;;5030518;28;20105;-69
2023/09/15 08:45:55;;;;;;;218.90;208.57;;;21.60;99.90;;;;;;5030041;28;20033;-70
2023/09/15 08:48:25;;;;;;;203.95;194.02;;;21.80;99.90;;;;;;5031902;28;20732;-69
2023/09/15 08:50:52;;;;;;;205.18;195.18;;;21.90;99.90;;;;;;5030928;28;20042;-69
2023/09/15 08:53:18;;;;;;;178.00;169.35;;;21.70;99.90;;;;;;5031173;28;20036;-69
2023/09/15 08:55:44;;;;;;;199.15;189.70;;;21.80;99.90;;;;;;5046711;28;20025;-69
2023/09/15 08:58:10;;;;;;;239.68;228.40;;;21.90;99.90;;;;;;5032658;28;20045;-69
2023/09/15 09:00:36;;;;;;;221.43;210.77;;;22.00;99.90;;;;;;5030522;28;20030;-69
2023/09/15 09:03:04;;;;;;;207.35;197.43;;;22.10;99.90;;;;;;5032463;28;20045;-69
2023/09/15 09:05:30;;;;;;;200.07;190.30;;;22.20;99.90;;;;;;5031849;28;20026;-69
2023/09/15 09:07:56;;;;;;;225.77;214.70;;;22.30;99.90;;;;;;5031068;28;20032;-69
2023/09/15 09:10:22;;;;;;;233.57;222.38;;;22.30;99.90;;;;;;5031165;28;20591;-69
2023/09/15 09:12:48;;;;;;;234.38;223.20;;;22.40;99.90;;;;;;5029013;28;20029;-69
2023/09/15 09:15:15;;;;;;;230.57;219.32;;;22.50;99.90;;;;;;5030119;28;20049;-70
2023/09/15 09:17:41;;;;;;;169.45;160.85;;;22.60;99.90;;;;;;5032101;28;20369;-69
2023/09/15 09:20:08;;;;;;;234.38;222.90;;;22.70;99.90;;;;;;5030851;28;20037;-72
2023/09/15 09:22:34;;;;;;;228.15;217.23;;;22.80;99.90;;;;;;5026676;28;20419;-72
2023/09/15 09:25:00;;;;;;;222.43;211.80;;;22.80;99.90;;;;;;5028860;28;20029;-72
2023/09/15 09:27:33;;;;;;;357.20;339.70;;;22.80;99.90;;;;;;5027521;28;20045;-72
2023/09/15 09:30:00;;;;;;;238.70;227.13;;;22.70;99.90;;;;;;5031872;28;20025;-71
2023/09/15 09:32:26;;;;;;;223.13;212.30;;;22.80;99.90;;;;;;5030712;28;20033;-71
2023/09/15 09:34:53;;;;;;;287.70;272.83;;;22.90;99.90;;;;;;5028921;28;20038;-72
2023/09/15 09:37:23;;;;;;;232.43;221.13;;;23.30;99.90;;;;;;5031406;28;20046;-72
2023/09/15 09:39:49;;;;;;;214.35;203.85;;;23.40;99.90;;;;;;5030693;28;20029;-72
2023/09/15 09:42:16;;;;;;;234.07;222.57;;;23.50;99.90;;;;;;5031498;28;20068;-72
2023/09/15 09:44:42;;;;;;;215.00;204.07;;;23.70;99.90;;;;;;5032004;28;20042;-74
2023/09/15 09:47:09;;;;;;;227.38;216.15;;;23.70;99.90;;;;;;5031210;28;20377;-72
2023/09/15 09:49:36;;;;;;;222.82;211.75;;;23.80;99.90;;;;;;5031514;28;20018;-72
2023/09/15 09:52:03;;;;;;;254.20;241.68;;;23.60;99.90;;;;;;5029620;28;20515;-72
2023/09/15 09:54:31;;;;;;;265.05;251.98;;;23.70;99.90;;;;;;5030681;28;20464;-72
2023/09/15 09:56:57;;;;;;;273.33;259.67;;;23.60;99.90;;;;;;5031085;28;20510;-72
2023/09/15 09:59:23;;;;;;;232.15;220.68;;;23.60;99.90;;;;;;5014765;28;20029;-72
2023/09/15 10:01:49;;;;;;;245.23;233.20;;;23.60;99.90;;;;;;5035385;28;20407;-71
2023/09/15 10:04:15;;;;;;;228.68;217.50;;;23.60;99.90;;;;;;5039066;28;20030;-72
2023/09/15 10:06:41;;;;;;;221.55;210.48;;;23.80;99.90;;;;;;5030829;28;20383;-72
2023/09/15 10:09:08;;;;;;;235.60;224.10;;;23.90;99.90;;;;;;5030881;28;20029;-72
2023/09/15 10:11:35;;;;;;;205.50;195.27;;;23.90;99.90;;;;;;5029192;28;20072;-72
2023/09/15 10:14:04;;;;;;;236.38;224.50;;;24.00;99.90;;;;;;5030781;28;20037;-72
2023/09/15 10:16:34;;;;;;;213.55;202.80;;;24.10;99.90;;;;;;5028446;28;20029;-72
2023/09/15 10:19:03;;;;;;;200.95;190.93;;;24.00;99.90;;;;;;5030138;28;20030;-73
2023/09/15 10:21:32;;;;;;;210.85;200.48;;;24.20;99.90;;;;;;5028810;28;20037;-72
2023/09/15 10:24:08;;;;;;;191.05;181.70;;;24.30;99.90;;;;;;5022280;28;20042;-72
2023/09/15 10:26:35;;;;;;;189.15;179.73;;;24.60;99.90;;;;;;5021362;28;20026;-72
2023/09/15 10:29:01;;;;;;;181.65;171.82;;;24.70;99.90;;;;;;5016898;28;20041;-73
2023/09/15 10:31:32;;;;;;;203.63;193.50;;;24.70;99.90;;;;;;5033520;28;20053;-73
2023/09/15 10:34:02;;;;;;;184.55;175.18;;;24.80;99.90;;;;;;5034330;28;20042;-72
2023/09/15 10:36:31;;;;;;;219.43;208.55;;;24.80;99.90;;;;;;5024500;28;20053;-72
2023/09/15 10:38:58;;;;;;;193.45;183.43;;;24.70;99.90;;;;;;5021839;28;20029;-73
2023/09/15 10:41:30;;;;;;;190.48;180.88;;;24.60;99.90;;;;;;5032531;28;20404;-73
2023/09/15 10:43:56;;;;;;;177.10;168.27;;;24.70;99.90;;;;;;5033615;28;20044;-72
2023/09/15 10:46:40;;;;;;;230.02;218.77;;;24.80;99.90;;;;;;5031954;28;20037;-72
2023/09/15 10:49:13;;;;;;;211.57;201.05;;;24.90;99.90;;;;;;5032087;28;20056;-72
2023/09/15 10:51:59;;;;;;;218.43;207.57;;;24.90;99.90;;;;;;5033004;28;20057;-72
2023/09/15 10:54:32;;;;;;;278.63;264.85;;;24.90;99.90;;;;;;5031479;28;20041;-72
2023/09/15 10:56:59;;;;;;;269.67;256.13;;;25.00;99.90;;;;;;5025879;28;20041;-72
2023/09/15 10:59:26;;;;;;;259.20;246.30;;;25.10;99.90;;;;;;5024824;28;20041;-71
2023/09/15 11:01:52;;;;;;;260.33;247.57;;;25.20;99.90;;;;;;5030869;28;20416;-71
2023/09/15 11:04:20;;;;;;;248.73;236.23;;;25.30;99.90;;;;;;5033818;28;20041;-72
2023/09/15 11:06:48;;;;;;;289.85;275.33;;;25.30;99.90;;;;;;5031070;28;20491;-74
2023/09/15 11:09:14;;;;;;;219.13;208.30;;;25.40;99.90;;;;;;5029134;28;20376;-72
2023/09/15 11:11:45;;;;;;;314.83;298.60;;;25.40;99.90;;;;;;5039381;28;20034;-72
2023/09/15 11:14:21;;;;;;;250.43;238.13;;;25.60;99.90;;;;;;5033844;28;20508;-72
2023/09/15 11:16:49;;;;;;;204.15;194.18;;;25.60;99.90;;;;;;5032912;28;20034;-72
2023/09/15 11:19:19;;;;;;;213.60;203.27;;;25.60;99.90;;;;;;5032041;28;20519;-72
2023/09/15 11:21:45;;;;;;;189.25;180.05;;;25.60;99.90;;;;;;5030617;28;20037;-72
2023/09/15 11:24:12;;;;;;;201.43;191.75;;;25.60;99.90;;;;;;5034015;28;20484;-72
2023/09/15 11:26:48;;;;;;;216.05;205.70;;;25.70;99.90;;;;;;5033494;28;20057;-72
2023/09/15 11:29:15;;;;;;;235.65;224.35;;;25.80;99.90;;;;;;5032915;28;20044;-72
2023/09/15 11:31:41;;;;;;;239.48;227.93;;;25.80;99.90;;;;;;5029936;28;20045;-72
2023/09/15 11:34:08;;;;;;;229.52;218.18;;;26.00;99.90;;;;;;5030896;28;20030;-72
2023/09/15 11:36:38;;;;;;;260.60;247.95;;;26.10;99.90;;;;;;5031678;28;20045;-72
2023/09/15 11:39:11;;;;;;;267.97;255.03;;;26.10;99.90;;;;;;5013777;28;20034;-72
2023/09/15 11:41:56;;;;;;;296.40;282.02;;;26.10;99.90;;;;;;5031425;28;20061;-73
2023/09/15 11:44:26;;;;;;;253.60;241.15;;;26.20;99.90;;;;;;5031722;28;20041;-73
2023/09/15 11:46:55;;;;;;;236.85;225.48;;;26.10;99.90;;;;;;5030525;28;20041;-72
2023/09/15 11:49:22;;;;;;;274.80;261.55;;;26.30;99.90;;;;;;5031709;28;20033;-72
2023/09/15 11:51:48;;;;;;;295.33;280.95;;;26.30;99.90;;;;;;5030797;28;20056;-72
2023/09/15 11:54:15;;;;;;;291.50;277.20;;;26.40;99.90;;;;;;5031788;28;20034;-72
2023/09/15 11:56:45;;;;;;;284.88;270.98;;;26.50;99.90;;;;;;5032930;28;20400;-72
2023/09/15 11:59:12;;;;;;;301.60;286.90;;;26.50;99.90;;;;;;5032019;28;20637;-72
2023/09/15 12:01:39;;;;;;;282.42;268.75;;;26.50;99.90;;;;;;5030607;28;20046;-72
2023/09/15 12:04:05;;;;;;;273.73;260.33;;;26.50;99.90;;;;;;5032458;28;20057;-72
2023/09/15 12:06:32;;;;;;;255.73;243.00;;;26.60;99.90;;;;;;5031943;28;20025;-72
2023/09/15 12:08:58;;;;;;;284.40;270.40;;;26.70;99.90;;;;;;5031585;28;20049;-72
2023/09/15 12:11:24;;;;;;;253.70;241.32;;;26.80;99.90;;;;;;5030396;28;20037;-72
2023/09/15 12:13:54;;;;;;;229.75;218.48;;;26.70;99.90;;;;;;5030453;28;20052;-71
2023/09/15 12:16:27;;;;;;;274.00;260.52;;;26.70;99.90;;;;;;5029933;28;20096;-72
2023/09/15 12:18:54;;;;;;;298.30;283.45;;;26.70;99.90;;;;;;5032546;28;20027;-72